sensor_id;sensor_type;location;lat;lon;timestamp;temperature;humidity
8114;DHT22;4099;52.684;9.918;2023-12-20T00:00:49;6.00;99.90
8114;DHT22;4099;52.684;9.918;2023-12-20T00:05:51;5.90;99.90
8114;DHT22;4099;52.684;9.918;2023-12-20T00:10:54;5.80;99.90
8114;DHT22;4099;52.684;9.918;2023-12-20T00:15:55;5.80;99.90
8114;DHT22;4099;52.684;9.918;2023-12-20T00:20:57;5.70;99.90
8114;DHT22;4099;52.684;9.918;2023-12-20T00:26:00;5.70;99.90
8114;DHT22;4099;52.684;9.918;2023-12-20T00:31:02;5.70;99.90
8114;DHT22;4099;52.684;9.918;2023-12-20T00:36:05;5.70;99.90
8114;DHT22;4099;52.684;9.918;2023-12-20T00:41:08;5.60;99.90
8114;DHT22;4099;52.684;9.918;2023-12-20T00:46:10;5.60;99.90
8114;DHT22;4099;52.684;9.918;2023-12-20T00:51:12;5.50;99.90
8114;DHT22;4099;52.684;9.918;2023-12-20T00:56:15;5.50;99.90
8114;DHT22;4099;52.684;9.918;2023-12-20T01:01:17;5.40;99.90
8114;DHT22;4099;52.684;9.918;2023-12-20T01:06:19;5.40;99.90
8114;DHT22;4099;52.684;9.918;2023-12-20T01:11:22;5.30;99.90
8114;DHT22;4099;52.684;9.918;2023-12-20T01:16:23;5.30;99.90
8114;DHT22;4099;52.684;9.918;2023-12-20T01:21:25;5.30;99.90
8114;DHT22;4099;52.684;9.918;2023-12-20T01:26:28;5.20;99.90
8114;DHT22;4099;52.684;9.918;2023-12-20T01:31:30;5.10;99.90
8114;DHT22;4099;52.684;9.918;2023-12-20T01:36:32;5.00;99.90
8114;DHT22;4099;52.684;9.918;2023-12-20T01:41:35;5.00;99.90
8114;DHT22;4099;52.684;9.918;2023-12-20T01:46:37;5.10;99.90
8114;DHT22;4099;52.684;9.918;2023-12-20T01:51:39;4.90;99.90
8114;DHT22;4099;52.684;9.918;2023-12-20T01:56:42;4.90;99.90
8114;DHT22;4099;52.684;9.918;2023-12-20T02:01:44;5.00;99.90
8114;DHT22;4099;52.684;9.918;2023-12-20T02:06:46;5.00;99.90
8114;DHT22;4099;52.684;9.918;2023-12-20T02:11:49;5.00;99.90
8114;DHT22;4099;52.684;9.918;2023-12-20T02:16:51;5.00;99.90
8114;DHT22;4099;52.684;9.918;2023-12-20T02:22:07;5.00;99.90
8114;DHT22;4099;52.684;9.918;2023-12-20T02:27:09;4.90;99.90
8114;DHT22;4099;52.684;9.918;2023-12-20T02:32:11;4.90;99.90
8114;DHT22;4099;52.684;9.918;2023-12-20T02:37:14;4.90;99.90
8114;DHT22;4099;52.684;9.918;2023-12-20T02:42:15;4.90;99.90
8114;DHT22;4099;52.684;9.918;2023-12-20T02:47:17;4.90;99.90
8114;DHT22;4099;52.684;9.918;2023-12-20T02:52:20;4.90;99.90
8114;DHT22;4099;52.684;9.918;2023-12-20T02:57:22;4.90;99.90
8114;DHT22;4099;52.684;9.918;2023-12-20T03:02:24;4.90;99.90
8114;DHT22;4099;52.684;9.918;2023-12-20T03:07:27;4.80;99.90
8114;DHT22;4099;52.684;9.918;2023-12-20T03:12:29;4.80;99.90
8114;DHT22;4099;52.684;9.918;2023-12-20T03:17:30;4.80;99.90
8114;DHT22;4099;52.684;9.918;2023-12-20T03:22:33;4.80;99.90
8114;DHT22;4099;52.684;9.918;2023-12-20T03:27:37;4.80;99.90
8114;DHT22;4099;52.684;9.918;2023-12-20T03:32:39;4.70;99.90
8114;DHT22;4099;52.684;9.918;2023-12-20T03:37:42;4.80;99.90
8114;DHT22;4099;52.684;9.918;2023-12-20T03:42:44;4.80;99.90
8114;DHT22;4099;52.684;9.918;2023-12-20T03:47:45;4.90;99.90
8114;DHT22;4099;52.684;9.918;2023-12-20T03:52:50;4.90;99.90
8114;DHT22;4099;52.684;9.918;2023-12-20T03:57:52;4.90;99.90
8114;DHT22;4099;52.684;9.918;2023-12-20T04:02:54;4.90;99.90
8114;DHT22;4099;52.684;9.918;2023-12-20T04:07:57;5.00;99.90
8114;DHT22;4099;52.684;9.918;2023-12-20T04:12:59;5.00;99.90
8114;DHT22;4099;52.684;9.918;2023-12-20T04:18:01;5.00;99.90
8114;DHT22;4099;52.684;9.918;2023-12-20T04:23:04;5.00;99.90
8114;DHT22;4099;52.684;9.918;2023-12-20T04:28:06;5.10;99.90
8114;DHT22;4099;52.684;9.918;2023-12-20T04:33:07;5.10;99.90
8114;DHT22;4099;52.684;9.918;2023-12-20T04:38:10;5.20;99.90
8114;DHT22;4099;52.684;9.918;2023-12-20T04:43:12;5.20;99.90
8114;DHT22;4099;52.684;9.918;2023-12-20T04:48:14;5.20;99.90
8114;DHT22;4099;52.684;9.918;2023-12-20T04:53:17;5.20;99.90
8114;DHT22;4099;52.684;9.918;2023-12-20T04:58:18;5.30;99.90
8114;DHT22;4099;52.684;9.918;2023-12-20T05:03:20;5.30;99.90
8114;DHT22;4099;52.684;9.918;2023-12-20T05:08:23;5.30;99.90
8114;DHT22;4099;52.684;9.918;2023-12-20T05:13:25;5.40;99.90
8114;DHT22;4099;52.684;9.918;2023-12-20T05:18:27;5.40;99.90
8114;DHT22;4099;52.684;9.918;2023-12-20T05:23:30;5.50;99.90
8114;DHT22;4099;52.684;9.918;2023-12-20T05:28:31;5.50;99.90
8114;DHT22;4099;52.684;9.918;2023-12-20T05:33:33;5.50;99.90
8114;DHT22;4099;52.684;9.918;2023-12-20T05:38:37;5.50;99.90
8114;DHT22;4099;52.684;9.918;2023-12-20T05:43:38;5.50;99.90
8114;DHT22;4099;52.684;9.918;2023-12-20T05:48:40;5.50;99.90
8114;DHT22;4099;52.684;9.918;2023-12-20T05:53:43;5.60;99.90
8114;DHT22;4099;52.684;9.918;2023-12-20T05:58:45;5.60;99.90
8114;DHT22;4099;52.684;9.918;2023-12-20T06:03:47;5.70;99.90
8114;DHT22;4099;52.684;9.918;2023-12-20T06:08:50;5.70;99.90
8114;DHT22;4099;52.684;9.918;2023-12-20T06:13:52;5.70;99.90
8114;DHT22;4099;52.684;9.918;2023-12-20T06:18:53;5.70;99.90
8114;DHT22;4099;52.684;9.918;2023-12-20T06:23:58;5.70;99.90
8114;DHT22;4099;52.684;9.918;2023-12-20T06:28:59;5.70;99.90
8114;DHT22;4099;52.684;9.918;2023-12-20T06:34:01;5.70;99.90
8114;DHT22;4099;52.684;9.918;2023-12-20T06:39:05;5.70;99.90
8114;DHT22;4099;52.684;9.918;2023-12-20T06:44:06;5.80;99.90
8114;DHT22;4099;52.684;9.918;2023-12-20T06:49:08;5.80;99.90
8114;DHT22;4099;52.684;9.918;2023-12-20T06:54:11;5.80;99.90
8114;DHT22;4099;52.684;9.918;2023-12-20T06:59:13;5.70;99.90
8114;DHT22;4099;52.684;9.918;2023-12-20T07:04:15;5.60;99.90
8114;DHT22;4099;52.684;9.918;2023-12-20T07:09:18;5.60;99.90
8114;DHT22;4099;52.684;9.918;2023-12-20T07:14:19;5.60;99.90
8114;DHT22;4099;52.684;9.918;2023-12-20T07:19:22;5.60;99.90
8114;DHT22;4099;52.684;9.918;2023-12-20T07:24:25;5.60;99.90
8114;DHT22;4099;52.684;9.918;2023-12-20T07:29:27;5.60;99.90
8114;DHT22;4099;52.684;9.918;2023-12-20T07:34:28;5.70;99.90
8114;DHT22;4099;52.684;9.918;2023-12-20T07:39:32;5.70;99.90
8114;DHT22;4099;52.684;9.918;2023-12-20T07:44:33;5.80;99.90
8114;DHT22;4099;52.684;9.918;2023-12-20T07:49:36;5.70;99.90
8114;DHT22;4099;52.684;9.918;2023-12-20T07:54:40;5.80;99.90
8114;DHT22;4099;52.684;9.918;2023-12-20T07:59:42;5.80;99.90
8114;DHT22;4099;52.684;9.918;2023-12-20T08:04:45;5.90;99.90
8114;DHT22;4099;52.684;9.918;2023-12-20T08:09:48;5.90;99.90
8114;DHT22;4099;52.684;9.918;2023-12-20T08:14:49;5.90;99.90
8114;DHT22;4099;52.684;9.918;2023-12-20T08:19:51;6.00;99.90
8114;DHT22;4099;52.684;9.918;2023-12-20T08:24:54;5.90;99.90
8114;DHT22;4099;52.684;9.918;2023-12-20T08:29:56;5.90;99.90
8114;DHT22;4099;52.684;9.918;2023-12-20T08:34:58;5.90;99.90
8114;DHT22;4099;52.684;9.918;2023-12-20T08:40:01;6.00;99.90
8114;DHT22;4099;52.684;9.918;2023-12-20T08:45:03;6.10;99.90
8114;DHT22;4099;52.684;9.918;2023-12-20T08:50:06;6.10;99.90
8114;DHT22;4099;52.684;9.918;2023-12-20T08:55:10;6.10;99.90
8114;DHT22;4099;52.684;9.918;2023-12-20T09:00:13;6.10;99.90
8114;DHT22;4099;52.684;9.918;2023-12-20T09:05:15;6.10;99.90
8114;DHT22;4099;52.684;9.918;2023-12-20T09:10:18;6.10;99.90
8114;DHT22;4099;52.684;9.918;2023-12-20T09:15:23;6.10;99.90
8114;DHT22;4099;52.684;9.918;2023-12-20T09:20:24;6.10;99.90
8114;DHT22;4099;52.684;9.918;2023-12-20T09:25:27;6.00;99.90
8114;DHT22;4099;52.684;9.918;2023-12-20T09:30:30;6.10;99.90
8114;DHT22;4099;52.684;9.918;2023-12-20T09:35:32;6.10;99.90
8114;DHT22;4099;52.684;9.918;2023-12-20T09:40:36;6.20;99.90
8114;DHT22;4099;52.684;9.918;2023-12-20T09:45:41;6.30;99.90
8114;DHT22;4099;52.684;9.918;2023-12-20T09:50:44;6.20;99.90
8114;DHT22;4099;52.684;9.918;2023-12-20T09:55:47;6.30;99.90
8114;DHT22;4099;52.684;9.918;2023-12-20T10:00:50;6.40;99.90
8114;DHT22;4099;52.684;9.918;2023-12-20T10:05:54;6.40;99.90
8114;DHT22;4099;52.684;9.918;2023-12-20T10:10:59;6.50;99.90
8114;DHT22;4099;52.684;9.918;2023-12-20T10:16:03;6.50;99.90
8114;DHT22;4099;52.684;9.918;2023-12-20T10:21:06;6.60;99.90
8114;DHT22;4099;52.684;9.918;2023-12-20T10:26:09;6.50;99.90
8114;DHT22;4099;52.684;9.918;2023-12-20T10:31:26;6.40;99.90
8114;DHT22;4099;52.684;9.918;2023-12-20T10:36:29;6.30;99.90
8114;DHT22;4099;52.684;9.918;2023-12-20T10:41:33;6.30;99.90
8114;DHT22;4099;52.684;9.918;2023-12-20T10:46:41;6.30;99.90
8114;DHT22;4099;52.684;9.918;2023-12-20T10:51:50;6.40;99.90
8114;DHT22;4099;52.684;9.918;2023-12-20T10:56:57;6.40;99.90
8114;DHT22;4099;52.684;9.918;2023-12-20T11:02:02;6.30;99.90
8114;DHT22;4099;52.684;9.918;2023-12-20T11:07:13;6.30;99.90
8114;DHT22;4099;52.684;9.918;2023-12-20T11:12:24;6.30;99.90
8114;DHT22;4099;52.684;9.918;2023-12-20T11:17:31;6.30;99.90
8114;DHT22;4099;52.684;9.918;2023-12-20T11:22:34;6.10;99.90
8114;DHT22;4099;52.684;9.918;2023-12-20T11:27:41;5.40;99.90
8114;DHT22;4099;52.684;9.918;2023-12-20T11:32:46;5.20;99.90
8114;DHT22;4099;52.684;9.918;2023-12-20T11:37:48;5.10;99.90
8114;DHT22;4099;52.684;9.918;2023-12-20T11:42:52;5.20;99.90
8114;DHT22;4099;52.684;9.918;2023-12-20T11:47:56;5.20;99.90
8114;DHT22;4099;52.684;9.918;2023-12-20T11:52:57;5.10;99.90
8114;DHT22;4099;52.684;9.918;2023-12-20T11:58:01;5.30;99.90
8114;DHT22;4099;52.684;9.918;2023-12-20T12:03:03;5.60;99.90
8114;DHT22;4099;52.684;9.918;2023-12-20T12:08:06;5.90;99.90
8114;DHT22;4099;52.684;9.918;2023-12-20T12:13:09;6.80;99.90
8114;DHT22;4099;52.684;9.918;2023-12-20T12:18:11;6.70;99.90
8114;DHT22;4099;52.684;9.918;2023-12-20T12:23:23;6.70;99.90
8114;DHT22;4099;52.684;9.918;2023-12-20T12:28:27;6.70;99.90
8114;DHT22;4099;52.684;9.918;2023-12-20T12:33:29;7.30;99.90
8114;DHT22;4099;52.684;9.918;2023-12-20T12:38:31;7.20;99.90
8114;DHT22;4099;52.684;9.918;2023-12-20T12:43:34;7.30;99.90
8114;DHT22;4099;52.684;9.918;2023-12-20T12:48:36;6.50;99.90
8114;DHT22;4099;52.684;9.918;2023-12-20T12:53:38;7.50;99.90
8114;DHT22;4099;52.684;9.918;2023-12-20T12:58:42;7.90;99.90
8114;DHT22;4099;52.684;9.918;2023-12-20T13:03:43;7.80;99.90
8114;DHT22;4099;52.684;9.918;2023-12-20T13:08:45;7.60;99.90
8114;DHT22;4099;52.684;9.918;2023-12-20T13:13:49;7.90;99.90
8114;DHT22;4099;52.684;9.918;2023-12-20T13:18:50;8.00;99.90
8114;DHT22;4099;52.684;9.918;2023-12-20T13:23:52;7.80;99.90
8114;DHT22;4099;52.684;9.918;2023-12-20T13:28:56;6.90;99.90
8114;DHT22;4099;52.684;9.918;2023-12-20T13:33:58;6.50;99.90
8114;DHT22;4099;52.684;9.918;2023-12-20T13:39:01;6.30;99.90
8114;DHT22;4099;52.684;9.918;2023-12-20T13:44:05;6.20;99.90
8114;DHT22;4099;52.684;9.918;2023-12-20T13:49:07;6.30;99.90
8114;DHT22;4099;52.684;9.918;2023-12-20T13:54:09;6.10;99.90
8114;DHT22;4099;52.684;9.918;2023-12-20T13:59:13;6.00;99.90
8114;DHT22;4099;52.684;9.918;2023-12-20T14:04:15;6.00;99.90
8114;DHT22;4099;52.684;9.918;2023-12-20T14:09:17;5.90;99.90
8114;DHT22;4099;52.684;9.918;2023-12-20T14:14:20;5.80;99.90
8114;DHT22;4099;52.684;9.918;2023-12-20T14:19:22;5.80;99.90
8114;DHT22;4099;52.684;9.918;2023-12-20T14:24:24;5.70;99.90
8114;DHT22;4099;52.684;9.918;2023-12-20T14:29:27;5.60;99.90
8114;DHT22;4099;52.684;9.918;2023-12-20T14:34:28;5.60;99.90
8114;DHT22;4099;52.684;9.918;2023-12-20T14:39:30;5.60;99.90
8114;DHT22;4099;52.684;9.918;2023-12-20T14:44:33;5.60;99.90
8114;DHT22;4099;52.684;9.918;2023-12-20T14:49:35;5.60;99.90
8114;DHT22;4099;52.684;9.918;2023-12-20T14:54:37;5.60;99.90
8114;DHT22;4099;52.684;9.918;2023-12-20T14:59:41;5.60;99.90
8114;DHT22;4099;52.684;9.918;2023-12-20T15:04:44;5.60;99.90
8114;DHT22;4099;52.684;9.918;2023-12-20T15:09:45;5.60;99.90
8114;DHT22;4099;52.684;9.918;2023-12-20T15:14:49;5.70;99.90
8114;DHT22;4099;52.684;9.918;2023-12-20T15:19:51;5.70;99.90
8114;DHT22;4099;52.684;9.918;2023-12-20T15:24:53;5.70;99.90
8114;DHT22;4099;52.684;9.918;2023-12-20T15:29:57;5.60;99.90
8114;DHT22;4099;52.684;9.918;2023-12-20T15:34:58;5.60;99.90
8114;DHT22;4099;52.684;9.918;2023-12-20T15:40:00;5.60;99.90
8114;DHT22;4099;52.684;9.918;2023-12-20T15:45:04;5.60;99.90
8114;DHT22;4099;52.684;9.918;2023-12-20T15:50:07;5.60;99.90
8114;DHT22;4099;52.684;9.918;2023-12-20T15:55:09;5.60;99.90
8114;DHT22;4099;52.684;9.918;2023-12-20T16:00:12;5.60;99.90
8114;DHT22;4099;52.684;9.918;2023-12-20T16:05:14;5.60;99.90
8114;DHT22;4099;52.684;9.918;2023-12-20T16:10:16;5.50;99.90
8114;DHT22;4099;52.684;9.918;2023-12-20T16:15:19;5.60;99.90
8114;DHT22;4099;52.684;9.918;2023-12-20T16:20:22;5.60;99.90
8114;DHT22;4099;52.684;9.918;2023-12-20T16:25:24;5.60;99.90
8114;DHT22;4099;52.684;9.918;2023-12-20T16:30:27;5.50;99.90
8114;DHT22;4099;52.684;9.918;2023-12-20T16:35:29;5.40;99.90
8114;DHT22;4099;52.684;9.918;2023-12-20T16:40:30;5.20;99.90
8114;DHT22;4099;52.684;9.918;2023-12-20T16:45:33;5.10;99.90
8114;DHT22;4099;52.684;9.918;2023-12-20T16:50:36;5.10;99.90
8114;DHT22;4099;52.684;9.918;2023-12-20T16:55:38;5.00;99.90
8114;DHT22;4099;52.684;9.918;2023-12-20T17:00:42;4.90;99.90
8114;DHT22;4099;52.684;9.918;2023-12-20T17:05:44;4.80;99.90
8114;DHT22;4099;52.684;9.918;2023-12-20T17:10:46;4.70;99.90
8114;DHT22;4099;52.684;9.918;2023-12-20T17:15:49;4.70;99.90
8114;DHT22;4099;52.684;9.918;2023-12-20T17:20:52;4.60;99.90
8114;DHT22;4099;52.684;9.918;2023-12-20T17:25:53;4.60;99.90
8114;DHT22;4099;52.684;9.918;2023-12-20T17:30:57;4.50;99.90
8114;DHT22;4099;52.684;9.918;2023-12-20T17:36:00;4.50;99.90
8114;DHT22;4099;52.684;9.918;2023-12-20T17:41:03;4.50;99.90
8114;DHT22;4099;52.684;9.918;2023-12-20T17:51:15;4.50;99.90
8114;DHT22;4099;52.684;9.918;2023-12-20T17:56:17;4.50;99.90
8114;DHT22;4099;52.684;9.918;2023-12-20T18:01:19;4.50;99.90
8114;DHT22;4099;52.684;9.918;2023-12-20T18:06:22;4.40;99.90
8114;DHT22;4099;52.684;9.918;2023-12-20T18:11:24;4.40;99.90
8114;DHT22;4099;52.684;9.918;2023-12-20T18:16:26;4.40;99.90
8114;DHT22;4099;52.684;9.918;2023-12-20T18:21:29;4.50;99.90
8114;DHT22;4099;52.684;9.918;2023-12-20T18:26:31;4.50;99.90
8114;DHT22;4099;52.684;9.918;2023-12-20T18:31:36;4.50;99.90
8114;DHT22;4099;52.684;9.918;2023-12-20T18:36:39;4.50;99.90
8114;DHT22;4099;52.684;9.918;2023-12-20T18:41:40;4.60;99.90
8114;DHT22;4099;52.684;9.918;2023-12-20T18:46:48;4.70;99.90
8114;DHT22;4099;52.684;9.918;2023-12-20T18:51:52;4.80;99.90
8114;DHT22;4099;52.684;9.918;2023-12-20T18:56:54;4.80;99.90
8114;DHT22;4099;52.684;9.918;2023-12-20T19:01:56;4.90;99.90
8114;DHT22;4099;52.684;9.918;2023-12-20T19:06:59;4.90;99.90
8114;DHT22;4099;52.684;9.918;2023-12-20T19:12:01;4.90;99.90
8114;DHT22;4099;52.684;9.918;2023-12-20T19:17:03;4.90;99.90
8114;DHT22;4099;52.684;9.918;2023-12-20T19:22:06;4.90;99.90
8114;DHT22;4099;52.684;9.918;2023-12-20T19:27:09;4.90;99.90
8114;DHT22;4099;52.684;9.918;2023-12-20T19:32:11;4.80;99.90
8114;DHT22;4099;52.684;9.918;2023-12-20T19:37:14;4.80;99.90
8114;DHT22;4099;52.684;9.918;2023-12-20T19:42:17;4.80;99.90
8114;DHT22;4099;52.684;9.918;2023-12-20T19:47:19;4.80;99.90
8114;DHT22;4099;52.684;9.918;2023-12-20T19:52:22;4.90;99.90
8114;DHT22;4099;52.684;9.918;2023-12-20T19:57:24;4.90;99.90
8114;DHT22;4099;52.684;9.918;2023-12-20T20:02:26;4.90;99.90
8114;DHT22;4099;52.684;9.918;2023-12-20T20:07:29;4.90;99.90
8114;DHT22;4099;52.684;9.918;2023-12-20T20:12:31;4.90;99.90
8114;DHT22;4099;52.684;9.918;2023-12-20T20:17:33;4.90;99.90
8114;DHT22;4099;52.684;9.918;2023-12-20T20:22:36;4.90;99.90
8114;DHT22;4099;52.684;9.918;2023-12-20T20:27:38;4.90;99.90
8114;DHT22;4099;52.684;9.918;2023-12-20T20:32:40;4.90;99.90
8114;DHT22;4099;52.684;9.918;2023-12-20T20:37:44;5.00;99.90
8114;DHT22;4099;52.684;9.918;2023-12-20T20:42:46;5.10;99.90
8114;DHT22;4099;52.684;9.918;2023-12-20T20:47:48;5.20;99.90
8114;DHT22;4099;52.684;9.918;2023-12-20T20:52:51;5.20;99.90
8114;DHT22;4099;52.684;9.918;2023-12-20T20:57:53;5.40;99.90
8114;DHT22;4099;52.684;9.918;2023-12-20T21:02:55;5.40;99.90
8114;DHT22;4099;52.684;9.918;2023-12-20T21:07:58;5.60;99.90
8114;DHT22;4099;52.684;9.918;2023-12-20T21:13:00;5.80;99.90
8114;DHT22;4099;52.684;9.918;2023-12-20T21:18:01;5.90;99.90
8114;DHT22;4099;52.684;9.918;2023-12-20T21:23:05;6.10;99.90
8114;DHT22;4099;52.684;9.918;2023-12-20T21:28:09;6.20;99.90
8114;DHT22;4099;52.684;9.918;2023-12-20T21:33:11;6.30;99.90
8114;DHT22;4099;52.684;9.918;2023-12-20T21:38:15;6.50;99.90
8114;DHT22;4099;52.684;9.918;2023-12-20T21:43:16;6.60;99.90
8114;DHT22;4099;52.684;9.918;2023-12-20T21:48:19;6.60;99.90
8114;DHT22;4099;52.684;9.918;2023-12-20T21:53:24;6.80;99.90
8114;DHT22;4099;52.684;9.918;2023-12-20T21:58:26;6.80;99.90
8114;DHT22;4099;52.684;9.918;2023-12-20T22:03:28;6.90;99.90
8114;DHT22;4099;52.684;9.918;2023-12-20T22:08:31;6.90;99.90
8114;DHT22;4099;52.684;9.918;2023-12-20T22:13:32;6.90;99.90
8114;DHT22;4099;52.684;9.918;2023-12-20T22:18:34;6.90;99.90
8114;DHT22;4099;52.684;9.918;2023-12-20T22:23:39;7.00;99.90
8114;DHT22;4099;52.684;9.918;2023-12-20T22:28:41;7.00;99.90
8114;DHT22;4099;52.684;9.918;2023-12-20T22:33:42;7.00;99.90
8114;DHT22;4099;52.684;9.918;2023-12-20T22:38:45;7.10;99.90
8114;DHT22;4099;52.684;9.918;2023-12-20T22:43:47;7.10;99.90
8114;DHT22;4099;52.684;9.918;2023-12-20T22:48:49;7.10;99.90
8114;DHT22;4099;52.684;9.918;2023-12-20T22:53:52;7.20;99.90
8114;DHT22;4099;52.684;9.918;2023-12-20T22:58:56;7.20;99.90
8114;DHT22;4099;52.684;9.918;2023-12-20T23:03:58;7.30;99.90
8114;DHT22;4099;52.684;9.918;2023-12-20T23:09:01;7.30;99.90
8114;DHT22;4099;52.684;9.918;2023-12-20T23:14:03;7.30;99.90
8114;DHT22;4099;52.684;9.918;2023-12-20T23:19:05;7.40;99.90
8114;DHT22;4099;52.684;9.918;2023-12-20T23:24:10;7.40;99.90
8114;DHT22;4099;52.684;9.918;2023-12-20T23:29:11;7.40;99.90
8114;DHT22;4099;52.684;9.918;2023-12-20T23:34:13;7.40;99.90
8114;DHT22;4099;52.684;9.918;2023-12-20T23:39:18;7.40;99.90
8114;DHT22;4099;52.684;9.918;2023-12-20T23:44:19;7.40;99.90
8114;DHT22;4099;52.684;9.918;2023-12-20T23:49:21;7.50;99.90
8114;DHT22;4099;52.684;9.918;2023-12-20T23:54:25;7.50;99.90
8114;DHT22;4099;52.684;9.918;2023-12-20T23:59:26;7.50;99.90
